Terminal Aerodrome Forecast
Issued by NWS Wakefield, VA

Home | Current Version | Previous Version | Text Only | Print | Product List | Glossary On
Versions: 1 2 3 4 5 6 7 8 9 10 11 12 13 14 15 16 17 18 19 20
000
FTUS41 KAKQ 262000 CCA
TAFSBY
TAF COR
KSBY 262004Z 2620/2718 36015G22KT 4SM -RA BR OVC008
     FM262100 34013G18KT 5SM -RA BR OVC008
      TEMPO 2621/2624 P6SM NSW OVC015
     FM270000 32012KT P6SM OVC015
     FM270500 32005KT P6SM OVC025=

USA.gov is the U.S. government's official web portal to all federal, state and local government web resources and services.